Time;durP1;ratioP1;P1;durP2;ratioP2;P2;SDS_P1;SDS_P2;PMS_P1;PMS_P2;Temp;Humidity;BMP_temperature;BMP_pressure;BME280_temperature;BME280_humidity;BME280_pressure;Samples;Min_cycle;Max_cycle;Signal;HPM_P1;HPM_P2
2023/07/28 00:01:11;;;;;;;;;;;;;;;;;;;;;
2023/07/28 00:04:51;;;;;;;;;;;;;;;18.58;51.70;99476.39;108526;1285;22021;-79
2023/07/28 00:07:36;;;;;;;;;;;;;;;18.53;51.83;99473.92;108623;1281;23605;-79
2023/07/28 00:11:12;;;;;;;;;;;;;;;18.49;52.00;99467.98;108859;1276;23787;-80
2023/07/28 00:14:41;;;;;;;;;;;;;;;18.47;52.00;99459.98;108689;1280;21985;-80
2023/07/28 00:17:44;;;;;;;;;;;;;;;18.38;52.10;99446.14;108718;1277;22219;-79
2023/07/28 00:21:04;;;;;;;;;;;;;;;18.43;52.20;99454.89;109096;1277;21984;-79
2023/07/28 00:24:11;;;;;;;;;;;;;;;18.41;52.33;99453.11;108984;1274;23711;-80
2023/07/28 00:27:02;;;;;;;;;;;;;;;18.36;52.52;99449.82;108657;1281;22007;-79
2023/07/28 00:29:49;;;;;;;;;;;;;;;18.34;52.82;99445.59;108874;1282;23075;-80
2023/07/28 00:33:18;;;;;;;;;;;;;;;18.34;52.95;99445.23;108837;1282;22014;-80
2023/07/28 00:36:31;;;;;;;;;;;;;;;18.31;52.95;99447.28;108771;1284;23052;-80
2023/07/28 00:39:22;;;;;;;;;;;;;;;18.23;52.93;99435.42;108369;1284;22747;-79
2023/07/28 00:42:49;;;;;;;;;;;;;;;;;;;;;
2023/07/28 00:45:39;;;;;;;;;;;;;;;18.26;53.55;99439.36;108674;1280;21978;-80
2023/07/28 00:52:04;;;;;;;;;;;;;;;18.25;53.71;99434.54;108470;1283;21977;-78
2023/07/28 00:55:52;;;;;;;;;;;;;;;;;;;;;
2023/07/28 00:58:52;;;;;;;;;;;;;;;18.27;53.58;99434.79;108579;1283;22016;-78
2023/07/28 01:01:37;;;;;;;;;;;;;;;18.27;53.81;99432.48;108126;1289;22405;-79
2023/07/28 01:04:43;;;;;;;;;;;;;;;;;;;;;
2023/07/28 01:07:59;;;;;;;;;;;;;;;18.32;53.84;99427.95;108318;1286;22002;-79
2023/07/28 01:11:05;;;;;;;;;;;;;;;18.33;53.79;99428.24;108370;1286;22109;-80
2023/07/28 01:14:08;;;;;;;;;;;;;;;18.33;53.93;99421.69;108392;1282;22017;-77
2023/07/28 01:17:40;;;;;;;;;;;;;;;18.31;53.90;99415.35;108510;1282;22080;-79
2023/07/28 01:20:43;;;;;;;;;;;;;;;18.29;54.26;99416.43;109055;1278;21997;-78
2023/07/28 01:24:19;;;;;;;;;;;;;;;18.21;54.30;99405.46;108913;1274;23746;-78
2023/07/28 01:27:42;;;;;;;;;;;;;;;18.18;54.66;99396.27;108499;1284;22039;-78
2023/07/28 01:30:26;;;;;;;;;;;;;;;18.22;54.97;99407.66;108884;1278;21975;-79
2023/07/28 01:33:32;;;;;;;;;;;;;;;18.21;55.09;99402.35;108660;1273;22013;-78
2023/07/28 01:37:01;;;;;;;;;;;;;;;18.20;55.26;99401.55;108793;1278;23823;-80
2023/07/28 01:40:14;;;;;;;;;;;;;;;18.17;55.31;99403.20;108484;1284;23076;-77
2023/07/28 01:43:22;;;;;;;;;;;;;;;18.11;55.76;99399.79;108542;1281;22002;-80
2023/07/28 01:46:12;;;;;;;;;;;;;;;18.09;55.94;99399.60;108514;1284;23070;-79
2023/07/28 01:49:30;;;;;;;;;;;;;;;18.06;56.11;99401.31;108710;1284;22014;-80
2023/07/28 01:56:00;;;;;;;;;;;;;;;18.01;56.57;99400.83;107602;1296;23107;-78
2023/07/28 01:59:02;;;;;;;;;;;;;;;17.99;56.85;99399.79;107840;1293;23799;-78
2023/07/28 02:02:10;;;;;;;;;;;;;;;17.94;57.03;99395.20;107847;1293;22520;-79
2023/07/28 02:06:21;;;;;;;;;;;;;;;17.87;57.46;99388.59;108037;1293;22004;-80
2023/07/28 02:08:55;;;;;;;;;;;;;;;17.78;57.80;99386.14;107776;1293;22511;-78
2023/07/28 02:11:56;;;;;;;;;;;;;;;17.65;58.21;99375.83;108200;1285;21982;-78
2023/07/28 02:15:05;;;;;;;;;;;;;;;17.66;58.61;99374.48;108196;1285;21985;-78
2023/07/28 02:18:11;;;;;;;;;;;;;;;17.62;58.94;99373.77;108496;1282;22029;-77
2023/07/28 02:21:33;;;;;;;;;;;;;;;17.58;59.35;99373.37;108759;1279;22075;-77
2023/07/28 02:24:40;;;;;;;;;;;;;;;17.61;59.75;99375.41;108830;1280;23771;-79
2023/07/28 02:27:47;;;;;;;;;;;;;;;17.63;59.79;99373.71;108773;1280;21979;-78
2023/07/28 02:30:35;;;;;;;;;;;;;;;17.61;59.87;99367.35;109326;1272;22522;-78
2023/07/28 02:33:22;;;;;;;;;;;;;;;17.57;59.98;99365.36;109227;1272;23825;-77
2023/07/28 02:36:17;;;;;;;;;;;;;;;17.48;60.13;99362.06;109207;1273;22718;-78
2023/07/28 02:39:24;;;;;;;;;;;;;;;17.43;60.47;99361.77;109302;1272;22008;-79
2023/07/28 02:42:23;;;;;;;;;;;;;;;17.40;60.83;99365.36;108828;1273;745767;-78
2023/07/28 02:45:37;;;;;;;;;;;;;;;17.35;60.99;99361.54;109192;1272;21967;-78
2023/07/28 02:51:46;;;;;;;;;;;;;;;17.26;61.71;99364.41;109141;1272;22453;-77
2023/07/28 02:55:01;;;;;;;;;;;;;;;17.17;61.93;99359.10;109316;1270;21984;-77
2023/07/28 02:58:25;;;;;;;;;;;;;;;17.07;62.30;99353.42;109505;1270;21986;-80
2023/07/28 03:01:11;;;;;;;;;;;;;;;17.05;63.19;99356.59;109011;1276;22747;-79
2023/07/28 03:04:05;;;;;;;;;;;;;;;17.04;63.52;99357.20;108708;1280;22038;-79
2023/07/28 03:07:42;;;;;;;;;;;;;;;17.04;64.00;99354.26;108913;1279;21975;-80
2023/07/28 03:11:02;;;;;;;;;;;;;;;17.07;64.27;99353.62;108860;1280;23603;-79
2023/07/28 03:14:29;;;;;;;;;;;;;;;17.07;64.40;99347.99;108950;1280;24411;-79
2023/07/28 03:17:28;;;;;;;;;;;;;;;17.09;64.17;99349.28;109024;1280;21996;-78
2023/07/28 03:20:25;;;;;;;;;;;;;;;17.07;64.17;99347.31;108917;1276;22058;-80
2023/07/28 03:23:16;;;;;;;;;;;;;;;17.05;64.34;99353.29;109677;1270;23602;-80
2023/07/28 03:26:08;;;;;;;;;;;;;;;17.07;64.48;99352.74;109152;1276;21985;-80
2023/07/28 03:29:03;;;;;;;;;;;;;;;17.12;64.58;99352.20;108923;1276;23066;-80
2023/07/28 03:31:48;;;;;;;;;;;;;;;17.17;64.76;99349.97;108795;1276;22087;-79
2023/07/28 03:34:35;;;;;;;;;;;;;;;17.18;64.52;99352.23;108545;1282;22766;-80
2023/07/28 03:37:38;;;;;;;;;;;;;;;17.16;64.83;99348.10;108595;1282;22034;-80
2023/07/28 03:40:31;;;;;;;;;;;;;;;17.18;64.88;99344.15;108738;1282;21977;-79
2023/07/28 03:43:16;;;;;;;;;;;;;;;17.21;65.00;99340.73;108798;1276;23068;-79
2023/07/28 03:46:14;;;;;;;;;;;;;;;17.15;64.83;99335.76;109011;1276;23051;-78
2023/07/28 03:49:33;;;;;;;;;;;;;;;17.17;65.03;99336.64;109261;1276;23154;-80
2023/07/28 03:52:35;;;;;;;;;;;;;;;17.20;65.08;99333.44;109340;1270;22117;-79
2023/07/28 03:55:38;;;;;;;;;;;;;;;17.19;65.07;99331.36;109772;1270;23690;-81
2023/07/28 03:59:15;;;;;;;;;;;;;;;17.18;65.17;99332.72;109742;1270;21966;-81
2023/07/28 04:01:55;;;;;;;;;;;;;;;17.18;65.34;99335.86;109615;1270;22257;-80
2023/07/28 04:05:03;;;;;;;;;;;;;;;17.22;65.57;99335.52;109532;1270;23587;-79
2023/07/28 04:08:37;;;;;;;;;;;;;;;17.27;65.58;99334.09;109722;1270;21958;-80
2023/07/28 04:11:27;;;;;;;;;;;;;;;17.28;65.62;99332.97;108955;1280;22095;-81
2023/07/28 04:14:45;;;;;;;;;;;;;;;17.25;65.40;99325.64;108888;1280;22309;-81
2023/07/28 04:18:27;;;;;;;;;;;;;;;;;;;;;
2023/07/28 04:21:21;;;;;;;;;;;;;;;17.21;65.94;99318.39;108868;1280;21971;-79
2023/07/28 04:24:25;;;;;;;;;;;;;;;17.19;66.23;99311.33;108317;1289;23065;-80
2023/07/28 04:27:45;;;;;;;;;;;;;;;17.20;66.26;99305.66;108234;1284;22114;-81
2023/07/28 04:30:32;;;;;;;;;;;;;;;17.17;66.67;99304.64;108152;1288;21986;-81
2023/07/28 04:33:41;;;;;;;;;;;;;;;17.15;66.86;99304.98;107475;1298;22006;-80
2023/07/28 04:36:39;;;;;;;;;;;;;;;17.15;66.58;99302.02;106859;1304;22065;-80
2023/07/28 04:39:43;;;;;;;;;;;;;;;17.14;66.75;99297.17;106912;1304;23995;-79
2023/07/28 04:42:53;;;;;;;;;;;;;;;17.14;66.66;99294.33;107078;1299;22040;-79
2023/07/28 04:45:36;;;;;;;;;;;;;;;17.13;67.08;99289.00;106843;1294;22476;-78
2023/07/28 04:48:12;;;;;;;;;;;;;;;17.13;67.12;99288.30;106785;1301;22319;-78
2023/07/28 04:50:53;;;;;;;;;;;;;;;17.11;67.38;99283.69;107181;1297;22761;-79
2023/07/28 04:53:55;;;;;;;;;;;;;;;17.09;67.59;99287.17;107642;1286;23075;-79
2023/07/28 04:56:33;;;;;;;;;;;;;;;17.11;67.74;99284.73;108367;1285;22313;-78
2023/07/28 04:59:13;;;;;;;;;;;;;;;17.14;67.97;99282.55;108545;1283;21989;-78
2023/07/28 05:01:55;;;;;;;;;;;;;;;17.13;67.62;99275.44;108553;1283;22049;-78
2023/07/28 05:04:27;;;;;;;;;;;;;;;17.15;68.03;99279.50;108435;1282;23638;-78
2023/07/28 05:07:07;;;;;;;;;;;;;;;17.16;68.13;99276.02;108703;1277;21969;-78
2023/07/28 05:09:46;;;;;;;;;;;;;;;17.17;68.22;99269.78;108836;1277;22728;-78
2023/07/28 05:12:26;;;;;;;;;;;;;;;17.21;68.11;99271.31;108942;1277;21982;-78
2023/07/28 05:15:28;;;;;;;;;;;;;;;17.20;68.37;99271.55;108994;1277;21990;-78
2023/07/28 05:18:06;;;;;;;;;;;;;;;17.18;68.54;99276.59;108797;1277;21992;-78
2023/07/28 05:21:10;;;;;;;;;;;;;;;17.21;68.54;99278.31;108905;1278;22252;-78
2023/07/28 05:23:41;;;;;;;;;;;;;;;17.26;68.75;99277.19;109016;1276;22971;-77
2023/07/28 05:26:18;;;;;;;;;;;;;;;17.33;68.98;99281.71;108965;1276;21982;-79
2023/07/28 05:28:54;;;;;;;;;;;;;;;17.40;68.73;99285.36;108983;1276;23044;-77
2023/07/28 05:31:24;;;;;;;;;;;;;;;17.45;68.49;99285.45;108976;1275;22830;-78
2023/07/28 05:34:00;;;;;;;;;;;;;;;17.44;68.51;99284.12;108962;1276;21973;-77
2023/07/28 05:36:46;;;;;;;;;;;;;;;17.44;68.61;99271.09;109058;1276;23628;-77
2023/07/28 05:39:21;;;;;;;;;;;;;;;17.48;68.25;99268.65;108576;1282;22734;-77
2023/07/28 05:41:57;;;;;;;;;;;;;;;17.49;68.42;99271.62;108748;1277;22024;-77
2023/07/28 05:44:28;;;;;;;;;;;;;;;17.53;68.43;99273.69;109038;1277;22261;-78
2023/07/28 05:46:59;;;;;;;;;;;;;;;17.60;68.40;99277.16;108538;1284;21985;-78
2023/07/28 05:49:37;;;;;;;;;;;;;;;17.64;68.28;99278.76;108190;1288;22055;-78
2023/07/28 05:52:13;;;;;;;;;;;;;;;17.64;68.27;99278.40;108227;1288;23817;-78
2023/07/28 05:54:44;;;;;;;;;;;;;;;17.65;68.38;99271.81;108181;1288;22003;-77
2023/07/28 05:57:21;;;;;;;;;;;;;;;17.64;68.21;99271.56;108259;1285;21996;-77
2023/07/28 05:59:57;;;;;;;;;;;;;;;17.66;68.27;99270.49;108582;1285;23061;-79
2023/07/28 06:02:39;;;;;;;;;;;;;;;17.73;68.29;99268.73;108439;1280;23706;-77
2023/07/28 06:05:17;;;;;;;;;;;;;;;17.74;68.27;99274.25;108552;1278;23789;-76
2023/07/28 06:07:49;;;;;;;;;;;;;;;17.75;68.76;99279.56;108960;1275;22068;-77
2023/07/28 06:10:28;;;;;;;;;;;;;;;17.79;68.75;99278.20;109093;1274;21967;-76
2023/07/28 06:13:10;;;;;;;;;;;;;;;17.82;69.02;99282.16;108934;1275;22756;-76
2023/07/28 06:15:46;;;;;;;;;;;;;;;17.81;68.61;99279.98;108985;1275;22041;-76
2023/07/28 06:18:16;;;;;;;;;;;;;;;17.82;68.81;99281.83;109100;1275;23696;-77
2023/07/28 06:20:52;;;;;;;;;;;;;;;17.79;68.80;99281.42;108944;1274;21966;-76
2023/07/28 06:23:29;;;;;;;;;;;;;;;17.76;69.20;99288.13;109052;1274;22001;-76
2023/07/28 06:26:02;;;;;;;;;;;;;;;17.78;69.43;99289.92;109026;1274;21976;-76
2023/07/28 06:28:38;;;;;;;;;;;;;;;17.81;69.59;99287.95;108564;1280;22554;-76
2023/07/28 06:31:20;;;;;;;;;;;;;;;17.82;69.47;99284.32;108551;1280;21979;-76
2023/07/28 06:34:06;;;;;;;;;;;;;;;17.83;69.66;99287.01;108513;1281;22020;-76
2023/07/28 06:36:49;;;;;;;;;;;;;;;17.79;69.51;99284.35;108652;1281;24327;-76
2023/07/28 06:39:30;;;;;;;;;;;;;;;17.78;69.68;99285.90;108331;1285;21997;-78
2023/07/28 06:42:03;;;;;;;;;;;;;;;17.77;69.93;99288.39;108457;1286;22916;-78
2023/07/28 06:44:50;;;;;;;;;;;;;;;17.77;69.93;99289.64;108365;1286;21986;-77
2023/07/28 06:47:29;;;;;;;;;;;;;;;17.80;70.29;99295.71;108830;1278;21988;-76
2023/07/28 06:50:13;;;;;;;;;;;;;;;17.81;70.49;99296.00;108843;1278;21972;-77
2023/07/28 06:52:42;;;;;;;;;;;;;;;17.78;70.30;99289.95;108943;1275;21999;-76
2023/07/28 06:55:15;;;;;;;;;;;;;;;17.75;70.36;99287.35;108956;1274;22855;-77
2023/07/28 06:57:50;;;;;;;;;;;;;;;17.72;70.60;99280.52;109281;1269;22008;-77
2023/07/28 07:00:33;;;;;;;;;;;;;;;17.72;70.83;99272.13;109599;1269;21972;-76
2023/07/28 07:03:06;;;;;;;;;;;;;;;17.64;70.70;99269.06;108889;1276;23753;-76
2023/07/28 07:05:37;;;;;;;;;;;;;;;17.56;70.99;99277.64;108982;1276;21975;-77
2023/07/28 07:08:20;;;;;;;;;;;;;;;17.54;71.40;99276.64;108990;1278;22011;-77
2023/07/28 07:11:03;;;;;;;;;;;;;;;17.52;71.34;99274.65;108733;1284;21986;-79
2023/07/28 07:13:49;;;;;;;;;;;;;;;17.48;71.70;99268.48;108565;1283;23056;-78
2023/07/28 07:16:20;;;;;;;;;;;;;;;17.43;72.28;99254.29;108248;1288;23615;-77
2023/07/28 07:18:58;;;;;;;;;;;;;;;17.41;72.31;99241.33;108245;1288;21982;-77
2023/07/28 07:21:39;;;;;;;;;;;;;;;17.34;72.31;99234.90;108425;1284;23706;-78
2023/07/28 07:24:16;;;;;;;;;;;;;;;17.40;72.48;99253.17;108117;1288;22793;-77
2023/07/28 07:26:50;;;;;;;;;;;;;;;17.46;72.86;99270.13;108197;1287;21976;-78
2023/07/28 07:29:37;;;;;;;;;;;;;;;17.52;72.93;99279.04;108085;1286;21983;-78
2023/07/28 07:32:15;;;;;;;;;;;;;;;17.59;73.01;99285.94;108525;1286;21997;-79
2023/07/28 07:34:53;;;;;;;;;;;;;;;17.65;73.08;99293.64;108402;1281;22055;-78
2023/07/28 07:37:33;;;;;;;;;;;;;;;17.68;73.18;99297.09;108818;1280;21993;-78
2023/07/28 07:40:17;;;;;;;;;;;;;;;17.74;73.20;99299.78;108751;1281;23053;-77
2023/07/28 07:43:04;;;;;;;;;;;;;;;17.77;73.15;99301.08;108925;1274;21993;-78
2023/07/28 07:45:38;;;;;;;;;;;;;;;17.80;73.03;99308.73;108783;1279;22042;-78
2023/07/28 07:48:15;;;;;;;;;;;;;;;17.83;73.01;99313.05;108685;1280;22023;-78
2023/07/28 07:50:56;;;;;;;;;;;;;;;17.89;72.92;99315.77;108697;1280;22065;-78
2023/07/28 07:53:36;;;;;;;;;;;;;;;17.90;72.74;99323.20;108213;1286;22005;-79
2023/07/28 07:56:15;;;;;;;;;;;;;;;17.88;72.48;99316.02;108096;1291;22057;-79
2023/07/28 07:58:54;;;;;;;;;;;;;;;17.92;72.78;99320.94;107908;1294;22757;-86
2023/07/28 08:01:35;;;;;;;;;;;;;;;17.95;72.51;99326.70;107904;1294;23681;-80
2023/07/28 08:04:11;;;;;;;;;;;;;;;17.93;72.52;99325.77;108045;1289;21989;-78
2023/07/28 08:07:04;;;;;;;;;;;;;;;17.92;72.72;99320.40;108355;1285;22444;-78
2023/07/28 08:09:51;;;;;;;;;;;;;;;17.91;72.73;99322.77;108465;1285;22716;-78
2023/07/28 08:12:26;;;;;;;;;;;;;;;17.93;73.02;99322.77;108644;1278;22448;-78
2023/07/28 08:15:00;;;;;;;;;;;;;;;17.96;72.90;99328.20;109077;1274;21969;-79
2023/07/28 08:17:41;;;;;;;;;;;;;;;17.99;72.98;99326.76;109683;1269;24906;-79
2023/07/28 08:20:36;;;;;;;;;;;;;;;18.02;72.92;99328.91;109661;1269;21976;-80
2023/07/28 08:23:17;;;;;;;;;;;;;;;18.06;72.83;99331.95;109696;1269;21971;-83
2023/07/28 08:25:50;;;;;;;;;;;;;;;18.14;73.18;99332.11;109895;1269;21984;-81
2023/07/28 08:28:33;;;;;;;;;;;;;;;18.29;73.50;99332.27;109566;1269;21960;-80
2023/07/28 08:31:13;;;;;;;;;;;;;;;18.44;73.60;99331.64;109511;1274;22150;-81
2023/07/28 08:33:50;;;;;;;;;;;;;;;18.59;73.55;99327.35;109601;1274;22008;-80
2023/07/28 08:36:25;;;;;;;;;;;;;;;18.72;73.57;99326.91;109377;1274;21973;-80
2023/07/28 08:39:00;;;;;;;;;;;;;;;18.82;73.15;99331.03;109154;1274;23714;-80
2023/07/28 08:41:31;;;;;;;;;;;;;;;18.92;72.96;99326.97;109426;1274;22655;-80
2023/07/28 08:44:09;;;;;;;;;;;;;;;18.97;72.65;99328.25;109386;1274;21981;-80
2023/07/28 08:46:38;;;;;;;;;;;;;;;19.02;72.40;99333.27;109136;1274;22188;-80
2023/07/28 08:49:47;;;;;;;;;;;;;;;19.05;72.11;99331.64;109751;1270;21963;-80
2023/07/28 08:52:24;;;;;;;;;;;;;;;19.10;72.14;99332.98;109794;1269;21996;-79
2023/07/28 08:55:21;;;;;;;;;;;;;;;19.15;71.80;99333.27;109914;1269;22000;-80
2023/07/28 08:57:54;;;;;;;;;;;;;;;19.14;71.49;99331.70;109818;1269;22025;-79
2023/07/28 09:00:38;;;;;;;;;;;;;;;19.11;71.64;99329.50;109835;1269;21982;-79
2023/07/28 09:03:12;;;;;;;;;;;;;;;19.14;71.99;99331.56;109840;1270;22009;-79
2023/07/28 09:06:14;;;;;;;;;;;;;;;19.21;72.23;99333.02;109810;1269;22418;-79
2023/07/28 09:09:00;;;;;;;;;;;;;;;19.25;72.20;99332.85;109823;1269;21961;-78
2023/07/28 09:11:49;;;;;;;;;;;;;;;19.24;72.07;99336.66;109794;1269;21966;-80
2023/07/28 09:14:23;;;;;;;;;;;;;;;19.26;71.98;99335.40;109648;1269;23787;-78
2023/07/28 09:17:15;;;;;;;;;;;;;;;19.28;71.85;99330.45;109699;1269;23754;-81
2023/07/28 09:19:51;;;;;;;;;;;;;;;19.28;71.71;99330.46;109699;1269;23735;-78
2023/07/28 09:22:29;;;;;;;;;;;;;;;19.30;71.99;99329.77;109506;1269;23783;-78
2023/07/28 09:25:11;;;;;;;;;;;;;;;19.34;72.17;99329.18;109987;1270;21996;-81
2023/07/28 09:27:57;;;;;;;;;;;;;;;19.37;72.03;99327.52;109151;1276;21961;-79
2023/07/28 09:30:47;;;;;;;;;;;;;;;19.40;72.09;99330.08;109122;1276;22087;-78
2023/07/28 09:33:46;;;;;;;;;;;;;;;19.47;72.38;99331.17;109200;1276;22065;-81
2023/07/28 09:36:25;;;;;;;;;;;;;;;19.60;72.48;99327.42;108934;1282;22002;-79
2023/07/28 09:39:04;;;;;;;;;;;;;;;19.73;72.64;99325.17;108928;1282;23097;-77
2023/07/28 09:41:38;;;;;;;;;;;;;;;19.89;72.62;99324.20;108696;1282;24370;-79
2023/07/28 09:44:15;;;;;;;;;;;;;;;20.01;72.68;99321.98;108681;1282;22367;-81
2023/07/28 09:46:57;;;;;;;;;;;;;;;20.19;72.41;99324.98;109273;1276;23703;-81
2023/07/28 09:49:42;;;;;;;;;;;;;;;20.36;72.48;99328.34;109323;1276;21978;-81
2023/07/28 09:52:14;;;;;;;;;;;;;;;20.49;71.50;99323.32;109326;1276;21986;-87
2023/07/28 09:54:49;;;;;;;;;;;;;;;20.58;71.00;99320.89;109445;1269;22887;-80
2023/07/28 09:57:26;;;;;;;;;;;;;;;20.69;71.16;99319.64;109789;1269;21978;-81
2023/07/28 10:00:00;;;;;;;;;;;;;;;20.83;70.80;99317.59;109272;1276;21997;-84
2023/07/28 10:02:58;;;;;;;;;;;;;;;21.17;72.17;99316.09;109188;1279;21996;-89
2023/07/28 10:05:34;;;;;;;;;;;;;;;21.58;71.24;99312.02;109047;1279;23797;-81
2023/07/28 10:08:32;;;;;;;;;;;;;;;21.76;69.62;99312.71;109134;1279;23030;-88
2023/07/28 10:11:55;;;;;;;;;;;;;;;;;;;;;
2023/07/28 10:14:46;;;;;;;;;;;;;;;21.66;66.72;99316.02;109175;1279;21994;-84
2023/07/28 10:17:37;;;;;;;;;;;;;;;21.50;66.38;99314.45;108645;1281;22077;-79
2023/07/28 10:20:46;;;;;;;;;;;;;;;21.36;66.30;99318.10;108575;1280;23060;-79
2023/07/28 10:23:25;;;;;;;;;;;;;;;21.27;66.63;99318.29;108530;1287;23079;-82
2023/07/28 10:26:01;;;;;;;;;;;;;;;21.24;66.97;99322.11;108182;1292;22000;-80
2023/07/28 10:28:58;;;;;;;;;;;;;;;21.24;67.51;99322.06;108263;1292;23104;-81
2023/07/28 10:31:55;;;;;;;;;;;;;;;21.33;67.95;99322.84;107993;1295;22126;-82
2023/07/28 10:34:42;;;;;;;;;;;;;;;21.57;68.96;99326.61;107955;1295;22406;-81
2023/07/28 10:37:28;;;;;;;;;;;;;;;21.91;68.79;99325.69;108565;1286;22081;-81
2023/07/28 10:40:47;;;;;;;;;;;;;;;22.04;67.45;99322.45;108547;1286;22848;-82
2023/07/28 10:43:46;;;;;;;;;;;;;;;22.15;67.28;99322.75;108670;1276;21982;-81
2023/07/28 10:46:27;;;;;;;;;;;;;;;22.49;67.91;99318.05;108766;1282;23743;-81
2023/07/28 10:49:17;;;;;;;;;;;;;;;;;;;;;
2023/07/28 10:52:00;;;;;;;;;;;;;;;23.09;66.72;99321.14;109058;1279;23068;-81
2023/07/28 10:55:01;;;;;;;;;;;;;;;23.38;65.91;99320.39;108929;1279;22006;-80
2023/07/28 10:57:39;;;;;;;;;;;;;;;23.56;64.86;99317.34;108903;1279;21973;-80
2023/07/28 11:00:22;;;;;;;;;;;;;;;23.68;63.91;99316.80;108867;1279;23627;-81
2023/07/28 11:02:53;;;;;;;;;;;;;;;23.65;62.52;99316.00;109041;1279;21973;-80
2023/07/28 11:06:09;;;;;;;;;;;;;;;23.43;61.70;99321.04;108920;1279;23830;-81
2023/07/28 11:08:44;;;;;;;;;;;;;;;23.24;61.70;99324.15;108862;1279;22006;-79
2023/07/28 11:11:42;;;;;;;;;;;;;;;23.11;62.26;99321.90;109190;1276;21973;-78
2023/07/28 11:14:22;;;;;;;;;;;;;;;23.00;62.67;99317.12;109119;1276;23660;-79
2023/07/28 11:17:05;;;;;;;;;;;;;;;22.87;62.67;99313.23;108695;1281;22111;-81
2023/07/28 11:19:48;;;;;;;;;;;;;;;22.73;63.19;99313.03;108721;1281;22352;-81
2023/07/28 11:22:21;;;;;;;;;;;;;;;22.76;64.27;99325.44;108864;1281;22006;-82
2023/07/28 11:25:09;;;;;;;;;;;;;;;22.84;64.34;99331.81;108836;1281;22068;-81
2023/07/28 11:27:43;;;;;;;;;;;;;;;22.79;63.77;99331.36;108579;1281;21989;-81
2023/07/28 11:30:38;;;;;;;;;;;;;;;22.65;63.35;99327.76;108837;1281;22387;-82
2023/07/28 11:33:32;;;;;;;;;;;;;;;22.46;63.56;99327.73;108861;1281;24418;-79
2023/07/28 11:36:29;;;;;;;;;;;;;;;22.39;64.27;99325.40;109133;1276;24331;-80
2023/07/28 11:39:05;;;;;;;;;;;;;;;22.38;64.47;99321.64;109817;1269;22672;-79
2023/07/28 11:41:42;;;;;;;;;;;;;;;22.38;64.94;99319.91;109073;1276;22404;-79
2023/07/28 11:44:25;;;;;;;;;;;;;;;22.44;65.43;99320.87;108922;1279;22014;-80
2023/07/28 11:46:59;;;;;;;;;;;;;;;22.55;65.72;99323.44;109032;1279;21962;-78
2023/07/28 11:49:51;;;;;;;;;;;;;;;22.67;66.03;99317.04;108811;1279;22192;-81
2023/07/28 11:52:41;;;;;;;;;;;;;;;22.79;65.82;99318.77;108938;1279;23976;-79
2023/07/28 11:55:33;;;;;;;;;;;;;;;22.83;65.21;99321.73;108598;1284;23605;-80
2023/07/28 11:58:25;;;;;;;;;;;;;;;22.83;64.74;99323.76;108380;1288;24481;-79
2023/07/28 12:01:13;;;;;;;;;;;;;;;22.78;64.47;99322.59;108741;1285;21995;-79
2023/07/28 12:03:55;;;;;;;;;;;;;;;22.74;64.60;99321.44;108801;1281;22738;-80
2023/07/28 12:07:06;;;;;;;;;;;;;;;22.69;64.37;99325.72;108954;1281;23693;-78
2023/07/28 12:10:06;;;;;;;;;;;;;;;22.58;64.04;99333.73;108468;1285;21980;-79
2023/07/28 12:13:03;;;;;;;;;;;;;;;22.50;64.10;99332.45;108665;1282;22099;-81
2023/07/28 12:16:05;;;;;;;;;;;;;;;22.43;64.41;99337.27;109048;1276;21992;-81
2023/07/28 12:19:20;;;;;;;;;;;;;;;22.39;64.62;99344.93;109240;1276;22914;-80
2023/07/28 12:21:56;;;;;;;;;;;;;;;22.37;65.17;99338.21;109246;1276;22013;-78
2023/07/28 12:24:37;;;;;;;;;;;;;;;22.45;65.42;99341.55;109148;1275;21974;-79
2023/07/28 12:27:28;;;;;;;;;;;;;;;22.47;65.38;99337.77;109519;1269;22739;-80
2023/07/28 12:30:15;;;;;;;;;;;;;;;22.52;65.63;99339.59;109687;1269;21974;-81
2023/07/28 12:33:06;;;;;;;;;;;;;;;22.58;65.67;99342.63;109235;1274;21951;-81
2023/07/28 12:35:55;;;;;;;;;;;;;;;22.64;65.16;99340.27;109077;1279;23186;-81
2023/07/28 12:39:03;;;;;;;;;;;;;;;22.69;65.03;99337.09;108926;1279;21993;-81
2023/07/28 12:41:47;;;;;;;;;;;;;;;22.72;64.34;99334.44;109276;1279;22053;-79
2023/07/28 12:44:42;;;;;;;;;;;;;;;22.79;64.02;99341.31;109028;1279;22016;-80
2023/07/28 12:47:43;;;;;;;;;;;;;;;22.85;63.40;99337.34;109013;1279;22901;-80
2023/07/28 12:50:29;;;;;;;;;;;;;;;22.86;62.82;99333.29;109039;1279;22015;-80
2023/07/28 12:53:28;;;;;;;;;;;;;;;22.89;62.48;99331.56;109295;1274;23780;-80
2023/07/28 12:56:14;;;;;;;;;;;;;;;22.94;62.20;99330.35;109494;1274;21971;-78
2023/07/28 12:59:16;;;;;;;;;;;;;;;23.02;62.31;99327.73;110034;1270;21996;-81
2023/07/28 13:01:58;;;;;;;;;;;;;;;23.13;62.34;99328.14;109968;1270;23078;-80
2023/07/28 13:05:15;;;;;;;;;;;;;;;;;;;;;
2023/07/28 13:08:37;;;;;;;;;;;;;;;23.41;61.92;99331.78;109041;1283;21991;-81
2023/07/28 13:11:43;;;;;;;;;;;;;;;23.45;61.14;99333.64;108933;1282;23073;-80
2023/07/28 13:14:30;;;;;;;;;;;;;;;23.48;60.82;99333.84;108674;1283;22059;-80
2023/07/28 13:17:09;;;;;;;;;;;;;;;23.58;61.04;99328.48;108711;1283;23056;-80
2023/07/28 13:20:02;;;;;;;;;;;;;;;;;;;;;
2023/07/28 13:22:55;;;;;;;;;;;;;;;23.89;60.64;99335.63;108697;1283;21985;-80
2023/07/28 13:25:58;;;;;;;;;;;;;;;24.06;60.56;99332.86;108767;1283;23151;-82
2023/07/28 13:29:01;;;;;;;;;;;;;;;24.20;59.97;99326.00;108547;1283;21963;-80
2023/07/28 13:33:03;;;;;;;;;;;;;;;24.32;59.07;99324.48;108768;1283;22006;-82
2023/07/28 13:40:08;;;;;;;;;;;;;;;24.32;57.51;99320.19;108058;1295;22010;-80
2023/07/28 13:43:34;;;;;;;;;;;;;;;24.42;57.40;99321.59;107818;1298;22015;-81
2023/07/28 13:46:27;;;;;;;;;;;;;;;24.46;56.53;99320.94;107781;1299;22731;-85
2023/07/28 13:49:26;;;;;;;;;;;;;;;24.43;55.77;99325.55;107752;1299;22015;-83
2023/07/28 13:52:02;;;;;;;;;;;;;;;24.48;55.94;99329.35;107599;1299;23074;-85
2023/07/28 13:54:36;;;;;;;;;;;;;;;24.61;55.88;99326.98;107869;1293;21992;-76
2023/07/28 13:57:14;;;;;;;;;;;;;;;24.74;55.57;99329.02;107882;1293;22772;-79
2023/07/28 13:59:56;;;;;;;;;;;;;;;24.78;54.96;99335.41;108113;1293;22013;-78
2023/07/28 14:02:49;;;;;;;;;;;;;;;24.74;54.64;99343.80;107854;1292;23068;-78
2023/07/28 14:05:31;;;;;;;;;;;;;;;24.67;54.30;99344.46;108108;1292;21998;-79
2023/07/28 14:08:01;;;;;;;;;;;;;;;24.54;54.10;99340.17;107866;1292;22110;-81
2023/07/28 14:10:42;;;;;;;;;;;;;;;24.45;54.32;99341.34;107741;1289;22013;-78
2023/07/28 14:13:17;;;;;;;;;;;;;;;24.38;54.27;99347.89;108424;1289;22038;-80
2023/07/28 14:15:52;;;;;;;;;;;;;;;24.33;54.54;99365.92;108217;1284;23063;-79
2023/07/28 14:19:00;;;;;;;;;;;;;;;24.27;55.12;99388.42;108954;1284;22055;-77
2023/07/28 14:21:50;;;;;;;;;;;;;;;;;;;;;
2023/07/28 14:24:25;;;;;;;;;;;;;;;23.92;56.48;99395.88;109096;1276;21988;-76
2023/07/28 14:27:22;;;;;;;;;;;;;;;23.84;57.19;99407.05;109378;1276;21994;-78
2023/07/28 14:30:10;;;;;;;;;;;;;;;23.74;57.76;99409.75;108919;1281;23008;-79
2023/07/28 14:32:47;;;;;;;;;;;;;;;23.68;58.61;99404.48;108669;1286;22708;-80
2023/07/28 14:35:46;;;;;;;;;;;;;;;23.68;58.92;99392.09;108338;1285;21997;-82
2023/07/28 14:38:21;;;;;;;;;;;;;;;23.65;58.98;99385.16;108277;1289;23653;-78
2023/07/28 14:40:51;;;;;;;;;;;;;;;23.62;58.96;99381.86;107954;1289;330064;-78
2023/07/28 14:43:26;;;;;;;;;;;;;;;23.53;58.87;99378.63;108083;1292;22003;-78
2023/07/28 14:46:03;;;;;;;;;;;;;;;23.51;58.66;99396.92;107935;1292;22892;-81
2023/07/28 14:48:42;;;;;;;;;;;;;;;23.40;58.60;99401.24;107861;1294;23101;-79
2023/07/28 14:51:16;;;;;;;;;;;;;;;23.28;58.82;99400.04;107838;1293;23058;-78
2023/07/28 14:53:55;;;;;;;;;;;;;;;23.22;59.02;99403.77;108077;1293;22107;-79
2023/07/28 14:56:39;;;;;;;;;;;;;;;23.14;59.01;99399.36;107851;1293;23066;-83
2023/07/28 14:59:11;;;;;;;;;;;;;;;23.09;59.19;99404.59;107765;1297;21976;-79
2023/07/28 15:01:55;;;;;;;;;;;;;;;23.04;59.29;99420.71;107563;1294;22018;-81
2023/07/28 15:04:39;;;;;;;;;;;;;;;22.98;59.57;99427.73;108035;1293;22013;-82